Time;durP1;ratioP1;P1;durP2;ratioP2;P2;SDS_P1;SDS_P2;PMS_P1;PMS_P2;Temp;Humidity;BMP_temperature;BMP_pressure;BME280_temperature;BME280_humidity;BME280_pressure;Samples;Min_cycle;Max_cycle;Signal;HPM_P1;HPM_P2
2021/06/16 00:00:18;;;;;;;4.95;3.70;;;;;;;21.98;55.91;100465.53;5073431;28;20048;-83
2021/06/16 00:02:43;;;;;;;6.28;4.18;;;;;;;21.97;56.17;100466.56;5073501;28;20036;-84
2021/06/16 00:05:15;;;;;;;5.13;3.38;;;;;;;21.96;56.18;100465.75;5069296;28;20541;-83
2021/06/16 00:07:41;;;;;;;5.15;3.70;;;;;;;21.89;56.44;100458.81;5064211;28;20032;-83
2021/06/16 00:10:09;;;;;;;4.97;3.90;;;;;;;21.83;55.95;100466.75;5073063;28;20545;-83
2021/06/16 00:12:34;;;;;;;4.95;3.72;;;;;;;21.84;56.28;100465.69;5063518;28;20102;-83
2021/06/16 00:15:00;;;;;;;4.80;3.95;;;;;;;21.72;56.76;100462.13;5050272;28;20049;-83
2021/06/16 00:17:26;;;;;;;4.35;3.40;;;;;;;21.71;56.96;100465.03;5055431;28;20033;-84
2021/06/16 00:19:51;;;;;;;4.05;3.00;;;;;;;21.67;57.44;100458.50;5070671;28;20094;-84
2021/06/16 00:22:16;;;;;;;4.03;3.08;;;;;;;21.63;56.35;100458.09;5055278;28;20494;-83
2021/06/16 00:24:42;;;;;;;4.53;3.30;;;;;;;21.52;57.87;100462.34;5069077;28;20415;-83
2021/06/16 00:27:07;;;;;;;4.65;3.72;;;;;;;21.47;57.62;100450.63;5043085;28;20164;-83
2021/06/16 00:29:33;;;;;;;4.85;3.28;;;;;;;21.40;57.81;100462.31;5074220;28;20032;-83
2021/06/16 00:31:58;;;;;;;5.32;3.72;;;;;;;21.42;58.08;100456.69;5074882;28;20103;-83
2021/06/16 00:34:24;;;;;;;4.30;3.65;;;;;;;21.38;58.72;100460.84;5056221;28;20101;-84
2021/06/16 00:36:49;;;;;;;4.57;3.35;;;;;;;21.33;57.42;100466.06;5056351;28;20390;-83
2021/06/16 00:39:15;;;;;;;4.30;3.67;;;;;;;21.29;58.31;100465.72;5069633;28;20036;-84
2021/06/16 00:41:41;;;;;;;4.78;3.97;;;;;;;21.35;57.94;100461.28;5043682;28;20100;-83
2021/06/16 00:44:06;;;;;;;5.85;3.95;;;;;;;21.46;57.04;100459.78;5071095;28;20045;-83
2021/06/16 00:46:32;;;;;;;5.28;3.88;;;;;;;21.57;56.69;100462.53;5061169;28;20399;-83
2021/06/16 00:48:58;;;;;;;5.10;4.05;;;;;;;21.66;56.31;100462.22;5069949;28;20048;-83
2021/06/16 00:51:24;;;;;;;4.75;3.53;;;;;;;21.59;57.00;100462.28;5074678;28;20024;-83
2021/06/16 00:53:49;;;;;;;5.30;3.92;;;;;;;21.63;56.33;100463.47;5076938;28;20037;-83
2021/06/16 00:56:15;;;;;;;4.63;3.90;;;;;;;21.68;56.45;100470.88;5058442;28;20370;-83
2021/06/16 00:58:41;;;;;;;6.60;4.28;;;;;;;21.70;56.38;100468.78;5072386;28;20291;-83
2021/06/16 01:01:11;;;;;;;5.20;4.20;;;;;;;21.80;56.23;100477.94;5075175;28;20029;-83
2021/06/16 01:03:44;;;;;;;5.72;3.70;;;;;;;21.77;56.48;100475.72;5053657;28;20100;-83
2021/06/16 01:06:19;;;;;;;15.70;7.93;;;;;;;21.74;56.29;100465.41;5056569;28;20033;-83
2021/06/16 01:09:03;;;;;;;20.83;8.68;;;;;;;21.81;56.15;100468.03;5070174;28;20047;-83
2021/06/16 01:11:33;;;;;;;24.88;9.52;;;;;;;21.80;56.46;100475.25;5055975;28;20037;-82
2021/06/16 01:14:10;;;;;;;17.53;7.00;;;;;;;21.80;56.38;100471.75;5062452;28;20440;-83
2021/06/16 01:16:40;;;;;;;9.93;5.43;;;;;;;21.76;56.86;100474.09;5043733;28;20278;-83
2021/06/16 01:19:21;;;;;;;17.88;7.45;;;;;;;21.76;56.65;100471.41;5061235;28;20067;-83
2021/06/16 01:21:54;;;;;;;7.07;4.78;;;;;;;21.72;56.96;100470.19;5064135;28;20032;-83
2021/06/16 01:24:19;;;;;;;5.10;3.90;;;;;;;21.75;57.50;100467.06;5076302;28;20062;-84
2021/06/16 01:26:48;;;;;;;6.22;3.92;;;;;;;21.68;58.08;100465.50;5072308;28;20114;-84
2021/06/16 01:29:28;;;;;;;7.20;4.63;;;;;;;21.63;57.39;100474.25;5062264;28;20036;-83
2021/06/16 01:31:56;;;;;;;5.15;3.92;;;;;;;21.67;57.25;100470.06;5048250;28;20383;-83
2021/06/16 01:34:23;;;;;;;6.07;4.32;;;;;;;21.68;57.37;100478.94;5072181;28;20035;-83
2021/06/16 01:36:51;;;;;;;5.78;4.28;;;;;;;21.70;57.62;100469.59;5067711;28;20091;-83
2021/06/16 01:39:20;;;;;;;7.60;4.78;;;;;;;21.76;57.32;100473.25;5046018;28;20045;-83
2021/06/16 01:41:47;;;;;;;6.53;4.40;;;;;;;21.68;57.91;100465.50;5075855;28;20039;-83
2021/06/16 01:44:13;;;;;;;6.43;4.35;;;;;;;21.68;57.60;100460.13;5060906;28;20585;-83
2021/06/16 01:46:40;;;;;;;6.20;4.28;;;;;;;21.69;57.68;100467.13;5064748;28;20317;-83
2021/06/16 01:49:06;;;;;;;6.40;4.55;;;;;;;21.70;57.58;100458.84;5068599;28;20037;-83
2021/06/16 01:51:32;;;;;;;5.63;4.47;;;;;;;21.75;57.91;100468.94;5049778;28;20044;-83
2021/06/16 01:53:59;;;;;;;7.22;4.45;;;;;;;21.67;58.17;100456.59;5075941;28;20036;-83
2021/06/16 01:56:27;;;;;;;5.55;4.30;;;;;;;21.57;58.64;100467.06;5056841;28;20060;-83
2021/06/16 01:58:54;;;;;;;10.02;4.50;;;;;;;21.58;58.56;100460.66;5048342;28;20037;-83
2021/06/16 02:01:23;;;;;;;6.40;4.53;;;;;;;21.55;58.71;100455.72;5047495;28;20036;-83
2021/06/16 02:03:48;;;;;;;10.77;5.05;;;;;;;21.54;58.74;100456.75;5069849;28;20033;-83
2021/06/16 02:06:18;;;;;;;6.07;3.92;;;;;;;21.52;58.89;100456.16;5047219;28;20032;-83
2021/06/16 02:08:45;;;;;;;5.97;4.28;;;;;;;21.49;58.90;100456.63;5056735;28;20033;-83
2021/06/16 02:11:13;;;;;;;5.65;4.30;;;;;;;21.51;58.78;100459.91;5047998;28;20070;-84
2021/06/16 02:13:41;;;;;;;4.72;3.72;;;;;;;21.48;58.94;100465.75;5067546;28;20124;-82
2021/06/16 02:16:11;;;;;;;6.85;4.30;;;;;;;21.44;59.30;100459.16;5047399;28;20033;-83
2021/06/16 02:18:45;;;;;;;6.68;4.35;;;;;;;21.40;59.18;100459.63;5055991;28;20040;-83
2021/06/16 02:21:12;;;;;;;8.25;4.60;;;;;;;21.37;59.05;100457.34;5074048;28;20119;-83
2021/06/16 02:23:38;;;;;;;6.10;4.45;;;;;;;21.27;59.55;100451.66;5056517;28;20055;-83
2021/06/16 02:26:04;;;;;;;5.32;4.30;;;;;;;21.20;60.31;100459.00;5069625;28;20100;-83
2021/06/16 02:28:29;;;;;;;5.10;3.75;;;;;;;21.13;59.91;100450.97;5062946;28;20067;-83
2021/06/16 02:30:56;;;;;;;4.57;3.90;;;;;;;21.02;60.40;100448.22;5053196;28;20402;-83
2021/06/16 02:33:21;;;;;;;4.63;3.50;;;;;;;20.96;60.56;100437.31;5074316;28;20051;-83
2021/06/16 02:35:47;;;;;;;4.35;3.45;;;;;;;20.91;61.44;100444.41;5074954;28;20040;-83
2021/06/16 02:38:18;;;;;;;4.90;3.38;;;;;;;20.89;60.91;100439.25;5074246;28;20033;-82
2021/06/16 02:40:44;;;;;;;4.73;3.97;;;;;;;20.92;60.65;100441.47;5075307;28;20061;-82
2021/06/16 02:43:09;;;;;;;4.82;3.88;;;;;;;20.87;60.37;100441.31;5047246;28;20033;-83
2021/06/16 02:45:36;;;;;;;5.55;3.80;;;;;;;20.82;60.79;100440.34;5051922;28;20044;-82
2021/06/16 02:48:05;;;;;;;4.80;4.05;;;;;;;20.77;61.35;100444.53;5061225;28;20033;-83
2021/06/16 02:50:30;;;;;;;5.70;4.22;;;;;;;20.80;61.42;100435.19;5049063;28;20036;-83
2021/06/16 02:53:00;;;;;;;6.55;4.50;;;;;;;20.74;61.41;100446.84;5065270;28;20469;-83
2021/06/16 02:55:27;;;;;;;5.10;4.20;;;;;;;20.65;61.73;100435.53;5056677;28;20458;-84
2021/06/16 02:57:54;;;;;;;6.90;4.40;;;;;;;20.67;61.94;100436.16;5047448;28;20089;-83
2021/06/16 03:00:21;;;;;;;6.00;4.03;;;;;;;20.61;61.86;100433.50;5075553;28;20036;-83
2021/06/16 03:02:48;;;;;;;5.28;4.30;;;;;;;20.55;63.32;100427.97;5076385;28;20439;-83
2021/06/16 03:05:23;;;;;;;7.30;4.50;;;;;;;20.56;62.93;100429.63;5056411;28;20036;-83
2021/06/16 03:07:50;;;;;;;4.63;4.10;;;;;;;20.47;63.87;100424.72;5045295;28;20037;-83
2021/06/16 03:10:17;;;;;;;5.05;4.10;;;;;;;20.47;63.37;100425.53;5069680;28;20181;-84
2021/06/16 03:12:43;;;;;;;6.07;4.72;;;;;;;20.54;62.62;100423.59;5072619;28;20033;-83
2021/06/16 03:15:10;;;;;;;5.35;4.25;;;;;;;20.57;62.71;100419.72;5057983;28;20036;-84
2021/06/16 03:17:36;;;;;;;6.05;4.50;;;;;;;20.64;62.54;100419.63;5049476;28;20059;-83
2021/06/16 03:20:05;;;;;;;6.30;4.68;;;;;;;20.69;62.87;100417.94;5069922;28;20133;-84
2021/06/16 03:22:31;;;;;;;6.63;4.90;;;;;;;20.75;62.34;100422.41;5056800;28;20048;-82
2021/06/16 03:24:58;;;;;;;7.47;5.00;;;;;;;20.78;62.18;100423.84;5054631;28;20333;-83
2021/06/16 03:27:24;;;;;;;7.07;4.82;;;;;;;20.78;62.27;100423.84;5051762;28;20543;-83
2021/06/16 03:29:53;;;;;;;5.65;4.35;;;;;;;20.81;62.39;100428.78;5050967;28;20033;-82
2021/06/16 03:32:23;;;;;;;8.48;5.03;;;;;;;20.79;62.61;100425.50;5066163;28;20041;-83
2021/06/16 03:34:48;;;;;;;6.45;4.85;;;;;;;20.77;62.81;100428.41;5072786;28;20056;-83
2021/06/16 03:37:15;;;;;;;5.97;4.72;;;;;;;20.74;62.34;100428.84;5072805;28;20115;-83
2021/06/16 03:39:42;;;;;;;6.25;4.57;;;;;;;20.79;62.36;100425.50;5046786;28;20445;-83
2021/06/16 03:42:08;;;;;;;6.32;4.70;;;;;;;20.74;62.46;100433.41;5068616;28;20031;-83
2021/06/16 03:44:35;;;;;;;7.47;4.90;;;;;;;20.67;62.60;100421.91;5064179;28;20127;-83
2021/06/16 03:47:02;;;;;;;6.75;4.82;;;;;;;20.61;63.06;100428.94;5068583;28;20116;-83
2021/06/16 03:49:31;;;;;;;5.03;4.03;;;;;;;20.64;63.17;100435.75;5055841;28;20490;-83
2021/06/16 03:51:58;;;;;;;6.63;4.57;;;;;;;20.56;63.03;100431.47;5053992;28;20041;-82
2021/06/16 03:54:25;;;;;;;5.38;4.40;;;;;;;20.43;63.14;100423.53;5058695;28;20033;-83
2021/06/16 03:56:51;;;;;;;5.85;4.68;;;;;;;20.32;64.18;100425.84;5063910;28;20035;-83
2021/06/16 03:59:19;;;;;;;5.50;4.50;;;;;;;20.23;63.54;100427.16;5055608;28;20036;-83
2021/06/16 04:01:44;;;;;;;5.93;4.28;;;;;;;20.15;64.92;100425.56;5052142;28;20406;-83
2021/06/16 04:04:11;;;;;;;4.80;4.05;;;;;;;20.08;65.29;100424.78;5047229;28;20028;-83
2021/06/16 04:06:40;;;;;;;5.13;4.57;;;;;;;20.05;65.77;100427.09;5036023;28;20033;-83
2021/06/16 04:09:06;;;;;;;5.65;3.90;;;;;;;20.02;65.57;100424.81;5059310;28;20633;-83
2021/06/16 04:11:32;;;;;;;6.38;4.80;;;;;;;19.97;66.32;100424.66;5073346;28;20036;-83
2021/06/16 04:13:58;;;;;;;6.47;5.25;;;;;;;19.94;66.67;100420.53;5043556;28;20037;-84
2021/06/16 04:16:27;;;;;;;7.50;5.18;;;;;;;19.89;67.83;100415.81;5065375;28;20489;-83
2021/06/16 04:18:53;;;;;;;6.80;5.63;;;;;;;19.82;68.13;100419.59;5073589;28;20044;-83
2021/06/16 04:21:20;;;;;;;7.30;6.13;;;;;;;19.71;69.02;100413.03;5056772;28;20033;-83
2021/06/16 04:23:47;;;;;;;6.60;5.90;;;;;;;19.73;66.83;100403.75;5070177;28;20095;-83
2021/06/16 04:26:13;;;;;;;6.85;6.10;;;;;;;19.70;67.09;100412.22;5047159;28;20036;-83
2021/06/16 04:28:38;;;;;;;7.25;6.38;;;;;;;19.72;67.52;100420.88;5077760;28;20057;-83
2021/06/16 04:31:04;;;;;;;7.53;6.15;;;;;;;19.68;68.69;100422.34;5042484;28;20097;-83
2021/06/16 04:33:29;;;;;;;10.43;7.43;;;;;;;19.61;68.86;100426.88;5077141;28;20043;-82
2021/06/16 04:35:55;;;;;;;8.40;6.78;;;;;;;19.59;68.12;100426.25;5074714;28;20036;-84
2021/06/16 04:38:20;;;;;;;6.63;5.38;;;;;;;19.63;68.22;100427.50;5085824;28;20123;-84
2021/06/16 04:40:45;;;;;;;5.03;4.53;;;;;;;19.69;69.54;100424.00;5067556;28;20036;-83
2021/06/16 04:43:11;;;;;;;7.13;6.05;;;;;;;19.65;69.16;100425.44;5070098;28;20048;-84
2021/06/16 04:45:36;;;;;;;5.78;5.10;;;;;;;19.69;68.97;100429.38;5074113;28;20094;-84
2021/06/16 04:48:04;;;;;;;6.32;4.40;;;;;;;19.73;68.14;100430.59;5062998;28;20043;-84
2021/06/16 04:50:29;;;;;;;4.30;3.90;;;;;;;19.83;68.33;100424.75;5061846;28;20067;-84
2021/06/16 04:52:54;;;;;;;5.20;4.30;;;;;;;19.86;68.09;100426.19;5075657;28;20036;-83
2021/06/16 04:55:19;;;;;;;6.75;5.93;;;;;;;19.81;68.89;100424.13;5056202;28;20514;-83
2021/06/16 04:57:45;;;;;;;6.53;5.82;;;;;;;19.79;70.20;100425.41;5062637;28;20457;-83
2021/06/16 05:00:11;;;;;;;5.80;5.20;;;;;;;19.80;69.14;100430.53;5059943;28;20137;-83
2021/06/16 05:02:36;;;;;;;7.47;5.35;;;;;;;19.86;68.85;100431.56;5060827;28;20112;-83
2021/06/16 05:05:04;;;;;;;5.30;4.80;;;;;;;19.92;69.43;100430.66;5067122;28;20128;-83
2021/06/16 05:07:29;;;;;;;5.85;5.10;;;;;;;19.96;68.07;100423.03;5060730;28;20028;-83
2021/06/16 05:09:54;;;;;;;4.78;4.18;;;;;;;20.00;68.00;100422.38;5060975;28;20036;-83
2021/06/16 05:12:19;;;;;;;5.78;4.70;;;;;;;20.09;67.88;100428.28;5078046;28;20044;-84
2021/06/16 05:14:45;;;;;;;6.60;5.55;;;;;;;20.11;68.73;100424.34;5050141;28;20032;-83
2021/06/16 05:17:10;;;;;;;6.68;5.15;;;;;;;20.18;67.93;100423.50;5075519;28;20041;-84
2021/06/16 05:19:36;;;;;;;5.35;4.78;;;;;;;20.23;69.86;100415.59;5071001;28;20032;-84
2021/06/16 05:22:10;;;;;;;7.28;5.97;;;;;;;20.20;73.06;100419.53;5060178;28;20087;-83
2021/06/16 05:24:36;;;;;;;8.70;6.38;;;;;;;20.18;74.01;100413.56;5030401;28;20053;-83
2021/06/16 05:27:03;;;;;;;8.10;5.93;;;;;;;20.17;74.36;100414.63;5028577;28;20041;-82
2021/06/16 05:29:28;;;;;;;6.43;5.80;;;;;;;20.22;72.84;100419.34;5048399;28;20119;-83
2021/06/16 05:31:54;;;;;;;5.28;4.78;;;;;;;20.29;72.65;100414.75;5078364;28;20037;-84
2021/06/16 05:34:19;;;;;;;5.38;4.40;;;;;;;20.38;69.21;100421.50;5059204;28;20036;-83
2021/06/16 05:36:45;;;;;;;7.30;6.60;;;;;;;20.35;69.42;100414.69;5042471;28;20037;-84
2021/06/16 05:39:10;;;;;;;7.13;5.82;;;;;;;20.40;69.87;100413.19;5054041;28;20037;-83
2021/06/16 05:41:36;;;;;;;7.53;5.82;;;;;;;20.54;69.21;100422.78;5043305;28;20049;-84
2021/06/16 05:44:01;;;;;;;7.20;5.20;;;;;;;20.71;67.84;100417.69;5058780;28;20071;-83
2021/06/16 05:46:27;;;;;;;7.20;5.80;;;;;;;20.83;67.59;100426.69;5058933;28;20052;-83
2021/06/16 05:48:52;;;;;;;8.38;6.57;;;;;;;20.99;66.96;100425.28;5060232;28;20033;-84
2021/06/16 05:51:17;;;;;;;7.97;5.53;;;;;;;21.15;66.54;100430.06;5077459;28;20417;-83
2021/06/16 05:53:43;;;;;;;4.90;4.40;;;;;;;21.41;65.75;100426.28;5070560;28;20123;-83
2021/06/16 05:56:08;;;;;;;5.05;4.18;;;;;;;21.68;65.35;100415.19;5050447;28;20032;-83
2021/06/16 05:58:33;;;;;;;6.22;4.82;;;;;;;21.94;64.51;100421.25;5074568;28;20062;-82
2021/06/16 06:00:58;;;;;;;7.45;5.07;;;;;;;22.21;64.56;100419.81;5075303;28;20041;-83
2021/06/16 06:03:24;;;;;;;7.65;4.93;;;;;;;22.48;63.72;100420.22;5072814;28;20494;-83
2021/06/16 06:05:49;;;;;;;5.07;4.00;;;;;;;22.69;62.69;100418.81;5075675;28;20151;-84
2021/06/16 06:08:14;;;;;;;5.90;4.68;;;;;;;22.93;63.11;100412.59;5072150;28;20071;-84
2021/06/16 06:10:40;;;;;;;6.03;4.53;;;;;;;23.13;62.79;100423.03;5044128;28;20052;-84
2021/06/16 06:13:05;;;;;;;5.38;4.32;;;;;;;23.30;59.20;100416.66;5075400;28;20528;-84
2021/06/16 06:15:31;;;;;;;4.47;3.75;;;;;;;23.52;59.33;100416.00;5055544;28;20041;-83
2021/06/16 06:17:57;;;;;;;5.05;4.30;;;;;;;23.53;58.77;100418.47;5056840;28;20059;-84
2021/06/16 06:20:22;;;;;;;4.78;3.88;;;;;;;23.63;58.63;100417.03;5058024;28;20032;-83
2021/06/16 06:22:47;;;;;;;5.63;4.07;;;;;;;23.97;58.04;100417.13;5077323;28;20044;-84
2021/06/16 06:25:13;;;;;;;4.53;3.45;;;;;;;24.36;59.47;100420.78;5058869;28;20401;-84
2021/06/16 06:27:39;;;;;;;4.03;3.50;;;;;;;24.73;58.31;100433.81;5077526;28;20044;-84
2021/06/16 06:30:06;;;;;;;4.72;3.55;;;;;;;25.04;57.36;100426.94;5050764;28;20029;-83
2021/06/16 06:32:31;;;;;;;4.63;4.13;;;;;;;25.36;56.26;100429.81;5049658;28;20109;-83
2021/06/16 06:34:57;;;;;;;5.50;4.20;;;;;;;25.73;55.59;100425.63;5065568;28;20037;-83
2021/06/16 06:37:22;;;;;;;8.43;5.90;;;;;;;26.15;52.69;100423.09;5048520;28;20056;-84
2021/06/16 06:39:49;;;;;;;5.63;4.68;;;;;;;26.45;50.96;100425.22;5052054;28;20041;-83
2021/06/16 06:42:16;;;;;;;5.80;4.00;;;;;;;26.86;49.94;100422.81;5058951;28;20039;-84
2021/06/16 06:44:41;;;;;;;4.60;3.70;;;;;;;27.29;49.28;100420.88;5047512;28;20102;-83
2021/06/16 06:47:06;;;;;;;6.75;5.07;;;;;;;27.20;50.87;100414.31;5053472;28;20028;-83
2021/06/16 06:49:32;;;;;;;6.40;4.28;;;;;;;27.34;48.78;100414.66;5076283;28;20024;-83
2021/06/16 06:51:57;;;;;;;5.57;4.22;;;;;;;27.56;49.04;100425.31;5056918;28;20814;-84
2021/06/16 06:54:23;;;;;;;9.05;5.00;;;;;;;27.51;50.20;100414.44;5070827;28;20112;-83
2021/06/16 06:56:48;;;;;;;6.57;5.05;;;;;;;27.63;50.71;100411.47;5054130;28;20086;-84
2021/06/16 06:59:13;;;;;;;7.45;5.10;;;;;;;27.91;48.64;100412.91;5074014;28;20743;-83
2021/06/16 07:01:39;;;;;;;5.65;3.90;;;;;;;28.26;47.93;100416.72;5057409;28;20033;-83
2021/06/16 07:04:04;;;;;;;5.47;3.95;;;;;;;28.73;45.95;100412.91;5055835;28;20033;-84
2021/06/16 07:06:30;;;;;;;4.40;3.38;;;;;;;29.15;46.71;100414.41;5056757;28;20094;-84
2021/06/16 07:08:56;;;;;;;5.75;4.10;;;;;;;29.57;47.59;100410.41;5060171;28;20028;-84
2021/06/16 07:11:22;;;;;;;5.97;5.10;;;;;;;29.61;43.28;100409.56;5059585;28;20486;-84
2021/06/16 07:13:47;;;;;;;6.97;5.20;;;;;;;29.25;46.36;100403.50;5058454;28;20052;-86
2021/06/16 07:16:12;;;;;;;7.00;3.78;;;;;;;29.36;46.07;100405.06;5043206;28;20035;-83
2021/06/16 07:18:38;;;;;;;5.05;3.75;;;;;;;29.54;45.02;100408.25;5041558;28;20040;-83
2021/06/16 07:21:04;;;;;;;4.50;3.38;;;;;;;29.95;43.47;100414.28;5054760;28;20115;-83
2021/06/16 07:23:29;;;;;;;3.95;3.15;;;;;;;30.35;44.10;100414.28;5055242;28;20033;-83
2021/06/16 07:25:54;;;;;;;4.25;3.22;;;;;;;30.46;44.14;100413.06;5053135;28;20064;-83
2021/06/16 07:28:20;;;;;;;4.10;2.95;;;;;;;30.56;41.28;100409.41;5050518;28;20041;-82
2021/06/16 07:30:45;;;;;;;4.35;2.97;;;;;;;30.74;41.62;100405.13;5076804;28;20056;-83
2021/06/16 07:33:10;;;;;;;4.07;3.03;;;;;;;30.75;42.76;100404.03;5065726;28;20127;-84
2021/06/16 07:35:37;;;;;;;5.63;3.30;;;;;;;30.82;41.92;100402.59;5044404;28;20490;-83
2021/06/16 07:38:03;;;;;;;6.43;3.70;;;;;;;30.57;40.32;100397.41;5059132;28;20036;-84
2021/06/16 07:40:28;;;;;;;3.30;2.83;;;;;;;30.57;41.65;100397.41;5039522;28;20043;-83
2021/06/16 07:42:53;;;;;;;3.08;2.58;;;;;;;30.89;41.96;100392.16;5049781;28;20082;-84
2021/06/16 07:45:19;;;;;;;3.75;3.00;;;;;;;31.51;39.51;100391.38;5061268;28;20032;-84
2021/06/16 07:47:44;;;;;;;4.53;3.40;;;;;;;31.88;40.20;100397.94;5077497;28;20028;-83
2021/06/16 07:50:10;;;;;;;4.90;3.28;;;;;;;32.26;39.76;100398.72;5060781;28;20402;-83
2021/06/16 07:52:36;;;;;;;5.90;2.90;;;;;;;32.53;39.59;100392.50;5067997;28;20025;-84
2021/06/16 07:55:01;;;;;;;6.43;3.97;;;;;;;32.75;37.51;100389.09;5057018;28;20028;-84
2021/06/16 07:57:26;;;;;;;4.30;3.03;;;;;;;32.57;37.09;100390.78;5069716;28;20068;-84
2021/06/16 07:59:52;;;;;;;4.90;3.50;;;;;;;32.98;36.27;100387.25;5064407;28;20537;-86
2021/06/16 08:02:17;;;;;;;4.93;3.08;;;;;;;33.19;37.08;100390.41;5048427;28;20043;-86
2021/06/16 08:04:43;;;;;;;4.72;3.00;;;;;;;33.11;35.24;100382.06;5071259;28;20398;-85
2021/06/16 08:07:10;;;;;;;3.65;2.63;;;;;;;33.53;36.93;100383.59;5076384;28;20028;-85
2021/06/16 08:09:41;;;;;;;3.60;2.42;;;;;;;33.96;37.11;100374.94;5057137;28;20036;-86
2021/06/16 08:12:09;;;;;;;5.45;3.08;;;;;;;34.09;36.00;100381.53;5072248;28;20025;-86
2021/06/16 08:14:37;;;;;;;3.78;2.92;;;;;;;34.09;35.45;100372.47;5065308;28;20028;-86
2021/06/16 08:17:03;;;;;;;3.55;2.70;;;;;;;34.26;34.95;100364.34;5055669;28;20590;-86
2021/06/16 08:19:29;;;;;;;5.85;2.88;;;;;;;34.94;34.23;100364.94;5075812;28;20060;-86
2021/06/16 08:21:54;;;;;;;4.15;3.03;;;;;;;34.93;33.61;100357.03;5073932;28;20526;-87
2021/06/16 08:24:19;;;;;;;3.10;2.30;;;;;;;35.24;34.04;100365.19;5073842;28;20110;-86
2021/06/16 08:26:45;;;;;;;4.72;2.90;;;;;;;35.82;31.84;100355.66;5052481;28;20072;-86
2021/06/16 08:29:11;;;;;;;3.50;2.47;;;;;;;35.87;32.71;100352.72;5068475;28;20033;-85
2021/06/16 08:31:36;;;;;;;4.82;2.30;;;;;;;36.34;31.91;100358.28;5047796;28;20036;-85
2021/06/16 08:34:02;;;;;;;3.88;2.70;;;;;;;36.30;31.43;100345.50;5058124;28;20068;-85
2021/06/16 08:36:28;;;;;;;3.85;2.75;;;;;;;36.71;28.80;100355.09;5050305;28;20103;-85
2021/06/16 08:38:53;;;;;;;3.78;2.40;;;;;;;36.84;30.30;100353.25;5064158;28;20389;-87
2021/06/16 08:41:20;;;;;;;2.95;2.50;;;;;;;37.07;29.46;100349.06;5047136;28;20029;-86
2021/06/16 08:43:47;;;;;;;5.93;3.10;;;;;;;36.56;28.93;100353.66;5051956;28;20028;-86
2021/06/16 08:46:14;;;;;;;3.45;2.28;;;;;;;36.58;30.35;100339.59;5067139;28;20035;-85
2021/06/16 08:48:43;;;;;;;5.60;2.50;;;;;;;36.55;28.98;100341.84;5039743;28;20029;-85
2021/06/16 08:51:12;;;;;;;6.13;3.53;;;;;;;37.03;28.39;100339.00;5054750;28;20033;-86
2021/06/16 08:53:38;;;;;;;5.93;3.33;;;;;;;36.98;27.63;100342.78;5047443;28;20033;-84
2021/06/16 08:56:04;;;;;;;2.80;2.28;;;;;;;36.59;30.55;100347.53;5054524;28;20056;-86
2021/06/16 08:58:37;;;;;;;5.90;2.95;;;;;;;37.27;27.83;100344.69;5052855;28;20059;-86
2021/06/16 09:01:07;;;;;;;5.93;2.90;;;;;;;37.15;28.06;100348.19;5049886;28;20033;-84
2021/06/16 09:03:33;;;;;;;;;;;;;;;37.35;28.06;100340.25;5056837;28;20164;-84
2021/06/16 09:06:09;;;;;;;2.95;2.15;;;;;;;37.92;29.28;100342.34;5054597;28;19973;-84
2021/06/16 09:08:57;;;;;;;3.78;2.15;;;;;;;38.22;27.42;100339.44;5047895;28;20032;-84
2021/06/16 09:11:25;;;;;;;5.22;3.00;;;;;;;37.16;27.45;100341.53;5074219;28;20028;-84
2021/06/16 09:14:08;;;;;;;5.38;2.83;;;;;;;36.56;29.42;100335.19;5074938;28;20041;-84
2021/06/16 09:16:34;;;;;;;3.80;2.30;;;;;;;36.63;29.28;100333.91;5029065;28;20056;-84
2021/06/16 09:18:59;;;;;;;5.22;2.75;;;;;;;36.32;29.43;100334.97;5050423;28;20041;-84
2021/06/16 09:21:32;;;;;;;5.55;2.88;;;;;;;35.73;30.43;100336.41;5040969;28;20037;-85
2021/06/16 09:23:57;;;;;;;3.75;2.00;;;;;;;35.90;31.08;100329.28;5036237;28;21944;-85
2021/06/16 09:26:22;;;;;;;5.07;2.63;;;;;;;35.95;29.48;100331.84;5084485;28;20092;-85
2021/06/16 09:28:51;;;;;;;3.33;2.40;;;;;;;35.80;29.54;100330.41;5065705;28;20068;-84
2021/06/16 09:31:19;;;;;;;4.15;2.55;;;;;;;35.89;28.49;100324.88;5066747;28;20040;-84
2021/06/16 09:33:45;;;;;;;4.07;2.47;;;;;;;35.69;29.43;100329.94;5057951;28;20446;-83
2021/06/16 09:36:13;;;;;;;4.68;2.35;;;;;;;35.67;29.79;100318.47;5057034;28;20039;-83
2021/06/16 09:38:39;;;;;;;3.85;2.20;;;;;;;35.40;29.78;100318.78;5062759;28;20425;-84
2021/06/16 09:41:12;;;;;;;3.28;2.50;;;;;;;35.52;29.81;100325.25;5072183;28;20090;-84
2021/06/16 09:43:39;;;;;;;3.65;2.30;;;;;;;34.67;29.40;100319.31;5060677;28;20033;-85
2021/06/16 09:46:10;;;;;;;4.13;2.30;;;;;;;35.09;30.09;100319.72;5059783;28;20059;-85
2021/06/16 09:48:39;;;;;;;3.40;2.20;;;;;;;35.39;29.82;100322.66;5058045;28;20037;-84
2021/06/16 09:51:26;;;;;;;3.75;2.42;;;;;;;35.54;30.31;100319.44;5059630;28;20033;-84
2021/06/16 09:54:21;;;;;;;4.53;2.40;;;;;;;35.45;29.17;100319.44;5057059;28;20041;-85
2021/06/16 09:56:55;;;;;;;5.00;2.15;;;;;;;35.38;29.79;100321.84;5076953;28;20037;-84
2021/06/16 09:59:37;;;;;;;4.50;2.40;;;;;;;35.68;28.12;100320.09;5057915;28;20036;-84
2021/06/16 10:02:03;;;;;;;2.90;2.03;;;;;;;35.59;29.54;100310.19;5056063;28;20046;-84
2021/06/16 10:04:34;;;;;;;3.10;2.10;;;;;;;35.57;29.53;100315.22;5051599;28;20042;-84
2021/06/16 10:07:18;;;;;;;3.05;1.70;;;;;;;35.60;31.15;100307.13;5047927;28;20441;-84
2021/06/16 10:09:59;;;;;;;3.25;2.00;;;;;;;35.59;28.74;100319.25;5048378;28;20041;-83
2021/06/16 10:12:33;;;;;;;3.40;2.10;;;;;;;35.33;27.45;100302.78;5074959;28;20041;-84
2021/06/16 10:15:01;;;;;;;3.33;1.90;;;;;;;35.45;29.02;100308.44;5066284;28;20068;-84
2021/06/16 10:17:26;;;;;;;3.15;2.00;;;;;;;35.37;28.27;100302.91;5053324;28;20029;-85
2021/06/16 10:19:53;;;;;;;2.30;1.55;;;;;;;35.44;28.61;100297.75;5055222;28;20101;-84
2021/06/16 10:22:19;;;;;;;2.60;1.60;;;;;;;35.42;28.54;100302.75;5043359;28;20132;-84
2021/06/16 10:24:45;;;;;;;3.28;1.90;;;;;;;35.46;27.52;100301.78;5038535;28;20033;-84
2021/06/16 10:27:25;;;;;;;2.20;1.60;;;;;;;35.02;26.18;100297.41;5057941;28;20047;-84
2021/06/16 10:29:52;;;;;;;4.15;1.60;;;;;;;34.96;27.25;100295.94;5047559;28;20298;-85
2021/06/16 10:32:18;;;;;;;2.58;1.50;;;;;;;34.77;26.44;100291.53;5056275;28;20098;-85
2021/06/16 10:34:52;;;;;;;2.63;1.80;;;;;;;34.62;27.09;100284.56;5053622;28;20134;-85
2021/06/16 10:37:30;;;;;;;2.20;1.67;;;;;;;34.68;25.90;100290.69;5055126;28;20089;-85
2021/06/16 10:40:23;;;;;;;2.42;1.50;;;;;;;34.35;23.31;100293.00;5053166;28;20041;-84
2021/06/16 10:43:05;;;;;;;2.42;1.45;;;;;;;33.99;25.97;100286.53;5066781;28;20063;-84
2021/06/16 10:45:41;;;;;;;2.47;1.60;;;;;;;34.18;24.96;100277.25;5081548;28;20040;-84
2021/06/16 10:48:10;;;;;;;2.85;1.70;;;;;;;34.08;24.18;100283.00;5078555;28;20040;-85
2021/06/16 10:50:48;;;;;;;2.80;1.40;;;;;;;34.08;24.87;100272.84;5075882;28;20028;-84
2021/06/16 10:53:21;;;;;;;2.38;1.60;;;;;;;34.36;24.83;100278.16;5064410;28;20045;-84
2021/06/16 10:55:52;;;;;;;2.90;1.67;;;;;;;34.18;24.28;100275.34;5062895;28;20028;-84
2021/06/16 10:58:21;;;;;;;2.85;1.77;;;;;;;33.84;26.81;100270.47;5062243;28;20033;-86
2021/06/16 11:01:12;;;;;;;2.70;1.60;;;;;;;34.22;24.92;100259.03;5078517;28;20406;-84
2021/06/16 11:04:00;;;;;;;;;;;;;;;34.64;23.14;100262.28;5064476;28;20029;-84
2021/06/16 11:06:35;;;;;;;2.08;1.65;;;;;;;34.34;23.35;100262.00;5044108;28;20326;-87
2021/06/16 11:09:10;;;;;;;2.67;1.60;;;;;;;34.34;23.81;100255.69;5058511;28;20048;-86
2021/06/16 11:11:52;;;;;;;3.05;1.70;;;;;;;34.17;23.16;100265.47;5060395;28;20028;-85
2021/06/16 11:14:32;;;;;;;2.40;1.48;;;;;;;33.97;23.73;100266.84;5054512;28;20041;-83
2021/06/16 11:16:59;;;;;;;2.65;1.70;;;;;;;33.73;24.12;100252.63;5059191;28;20125;-85
2021/06/16 11:19:48;;;;;;;4.70;1.60;;;;;;;33.85;23.81;100255.63;5055770;28;20033;-85
2021/06/16 11:22:13;;;;;;;3.60;1.70;;;;;;;33.92;23.86;100252.41;5059942;28;20033;-85
2021/06/16 11:25:05;;;;;;;3.53;1.80;;;;;;;33.68;22.99;100255.53;5060961;28;20024;-85
2021/06/16 11:28:25;;;;;;;2.85;1.60;;;;;;;33.80;24.65;100244.78;5077886;28;20037;-85